Airfield :
LOGIN :

Register | Disclaimer

   EN    FR    IT 

 










Legend :    VFR   Marginal VFR   IFR   Intensive IFR   Very Intensive IFR
Visi :
Ceiling :
>= 8 km
>= 3000ft
5 to 8 km
1000 to 3000 ft
1500m to 5 km
500 to 1000 ft
800 to 1500m
200 to 500 ft
< 800m
< 200 ft
Symbols :   Thunderstorms  Fog  Heavy snow  Heavy precipitations  Wind > 20 kt
SIGMETs :     Misc.  Thunderstorms  Icing  Turbulence  Mountain Waves  Volcanic Ashes






- Airport Elevation : 433 ft
- IATA code : CCF


LFMK - Carcassonne

CURRENT METAR :
  • 170430Z AUTO 28007KT 9999 OVC019 07/05 Q1008 TEMPO 28025G35KT 2000 SHRA BR SCT010 BKN020TCU

EXPIRED METARs :
  • 170400Z AUTO 28009KT 9999 OVC020 07/05 Q1009 TEMPO 28025G35KT 2000 SHRA BR SCT010 BKN020TCU
  • 170330Z AUTO 28008KT 9999 OVC020 07/05 Q1009 TEMPO 28025G35KT 2000 SHRA BR SCT010 BKN020TCU
  • 170300Z AUTO 28009KT 9999 OVC021 07/04 Q1009 TEMPO 28025G35KT 2000 SHRA BR SCT010 BKN020TCU
  • 170230Z AUTO 29009KT 9999 BKN023 OVC032 07/04 Q1009
  • 170200Z AUTO 29010KT 9999 BKN023 OVC036 07/04 Q1009
  • 170130Z AUTO 28008KT 9999 OVC021 07/04 Q1009

TAF TAF LFMK
Valid from the 17 at 03:00 until the 18 at 03:00 UTC


170200Z 1703/1803 28015G25KT 9999 SCT020 BKN040
TEMPO 1704/1715 28025G35KT 2000 SHRA BR SCT010 BKN020TCU
BECMG 1722/1724 VRB03KT 4000 RA BKN008 BKN015



MET'MAP, your aeronautical weather chart ! - Copyright ORBIFLY December 2007 - Disclaimer

ORBIFLY MET'MAP TEAM :

Programming & Development : Alexandra Zaïnal
Concept & Development : Baudouin d'Aumeries
Co-Development & Prog : Marc-Olivier Méhu
Technical & hardware support : Manuel Goepfert

Contact : metmap@orbifly.com




SOURCES & CREDITS :

   NOAA